PWSweather.com
Personal Weather Stations
Station Observations
ANTHEMNP
Anthem North Parkside, Anthem, AZ 85086

Anthem North ParksideAnthem, AZ 85086

Lat: 33.876464, Lon: -112.13861199999997

Elevation: 1930

Station Type: Davis Vantage Vue with Pro 2 console

http://www.azjerry.com/ANPW/wxindex.php

Latest ConditionsUpdated 3:55:38 PM MST Sunday, Dec 9, 2018
Currently Today's Max Today's Min Today's Average
Temperature 69.0°F20.6°C 71.6°F22.0°C 48.8°F9.3°C 57.6°F14.2°C
Dew Point 40.2°F4.6°C 44.6°F7.0°C 36.1°F2.3°C 39.5°F4.2°C
Winds 1.2 mph SW1.9 kmh SW 10.4 mph -16.7 kmh - - 3.6 mph 5.8 kmh
Wind Gusts 3.5 mph5.6 kmh 16.1 mph25.9 kmh - -
Humidity 35% 81% 30% 54%
Pressure 30.30 in1026.1 mb 30.41 in1029.8 mb 30.30 in1026.1 mb -
Hour Temp Dew Point Humidity Winds Wind Gusts Pressure Precip Precip Rate Daily Precip Total
03:55 PM 69.0°F20.6°C 40.2°F4.6°C 35% 1.2 mph SW1.9 kmh SW 3.5 mph5.6 kmh 30.30 in1026.1 mb - 0.00 in0.0 mm 0.00 in0.0 mm
03:50 PM 69.4°F20.8°C 39.8°F4.3°C 34% 2.3 mph SW3.7 kmh SW 3.5 mph5.6 kmh 30.30 in1026.1 mb - 0.00 in0.0 mm 0.00 in0.0 mm
03:45 PM 70.3°F21.3°C 39.8°F4.3°C 33% 2.3 mph SSW3.7 kmh SSW 4.6 mph7.4 kmh 30.30 in1026.1 mb - 0.00 in0.0 mm 0.00 in0.0 mm
03:40 PM 70.3°F21.3°C 39.8°F4.3°C 33% 1.2 mph SW1.9 kmh SW 2.3 mph3.7 kmh 30.30 in1026.1 mb - 0.00 in0.0 mm 0.00 in0.0 mm
03:35 PM 70.5°F21.4°C 39.2°F4.0°C 32% 2.3 mph SW3.7 kmh SW 2.3 mph3.7 kmh 30.30 in1026.1 mb - 0.00 in0.0 mm 0.00 in0.0 mm
03:30 PM 70.8°F21.6°C 39.5°F4.2°C 32% 2.3 mph SW3.7 kmh SW 3.5 mph5.6 kmh 30.30 in1026.1 mb - 0.00 in0.0 mm 0.00 in0.0 mm
03:25 PM 71.6°F22.0°C 38.5°F3.6°C 30% Calm Calm 1.2 mph1.9 kmh 30.30 in1026.1 mb - 0.00 in0.0 mm 0.00 in0.0 mm
03:20 PM 71.4°F21.9°C 39.2°F4.0°C 31% 1.2 mph SE1.9 kmh SE 2.3 mph3.7 kmh 30.30 in1026.1 mb - 0.00 in0.0 mm 0.00 in0.0 mm
03:15 PM 71.2°F21.8°C 39.0°F3.9°C 31% 1.2 mph WSW1.9 kmh WSW 1.2 mph1.9 kmh 30.30 in1026.1 mb - 0.00 in0.0 mm 0.00 in0.0 mm
03:10 PM 70.8°F21.6°C 37.8°F3.2°C 30% 1.2 mph SE1.9 kmh SE 2.3 mph3.7 kmh 30.30 in1026.1 mb - 0.00 in0.0 mm 0.00 in0.0 mm
03:00 PM 70.6°F21.4°C 38.5°F3.6°C 31% 1.2 mph SW1.9 kmh SW 3.5 mph5.6 kmh 30.31 in1026.4 mb - 0.00 in0.0 mm 0.00 in0.0 mm
02:55 PM 70.7°F21.5°C 38.6°F3.7°C 31% 1.2 mph SSW1.9 kmh SSW 2.3 mph3.7 kmh 30.31 in1026.4 mb - 0.00 in0.0 mm 0.00 in0.0 mm
02:50 PM 70.4°F21.3°C 39.1°F3.9°C 32% 1.2 mph SE1.9 kmh SE 2.3 mph3.7 kmh 30.31 in1026.4 mb - 0.00 in0.0 mm 0.00 in0.0 mm
02:45 PM 69.9°F21.1°C 37.9°F3.3°C 31% Calm Calm -- 30.31 in1026.4 mb - 0.00 in0.0 mm 0.00 in0.0 mm
02:40 PM 69.6°F20.9°C 38.4°F3.6°C 32% Calm Calm -- 30.31 in1026.4 mb - 0.00 in0.0 mm 0.00 in0.0 mm
02:35 PM 69.5°F20.8°C 37.5°F3.1°C 31% 1.2 mph SE1.9 kmh SE 2.3 mph3.7 kmh 30.31 in1026.4 mb - 0.00 in0.0 mm 0.00 in0.0 mm
02:30 PM 69.8°F21.0°C 38.6°F3.7°C 32% 1.2 mph S1.9 kmh S 2.3 mph3.7 kmh 30.32 in1026.8 mb - 0.00 in0.0 mm 0.00 in0.0 mm
02:25 PM 69.3°F20.7°C 39.0°F3.9°C 33% 1.2 mph SSE1.9 kmh SSE 1.2 mph1.9 kmh 30.32 in1026.8 mb - 0.00 in0.0 mm 0.00 in0.0 mm
02:20 PM 68.6°F20.3°C 38.4°F3.6°C 33% 1.2 mph SSW1.9 kmh SSW 2.3 mph3.7 kmh 30.32 in1026.8 mb - 0.00 in0.0 mm 0.00 in0.0 mm
02:15 PM 68.9°F20.5°C 38.6°F3.7°C 33% 1.2 mph SE1.9 kmh SE 3.5 mph5.6 kmh 30.32 in1026.8 mb - 0.00 in0.0 mm 0.00 in0.0 mm
02:10 PM 68.9°F20.5°C 38.6°F3.7°C 33% 2.3 mph SSE3.7 kmh SSE 3.5 mph5.6 kmh 30.33 in1027.1 mb - 0.00 in0.0 mm 0.00 in0.0 mm
02:00 PM 68.9°F20.5°C 38.6°F3.7°C 33% 1.2 mph S1.9 kmh S 3.5 mph5.6 kmh 30.33 in1027.1 mb - 0.00 in0.0 mm 0.00 in0.0 mm
01:55 PM 68.8°F20.4°C 39.3°F4.1°C 34% 2.3 mph SSW3.7 kmh SSW 3.5 mph5.6 kmh 30.33 in1027.1 mb - 0.00 in0.0 mm 0.00 in0.0 mm
01:50 PM 68.3°F20.2°C 38.8°F3.8°C 34% 2.3 mph ENE3.7 kmh ENE 1.2 mph1.9 kmh 30.34 in1027.4 mb - 0.00 in0.0 mm 0.00 in0.0 mm
01:45 PM 68.5°F20.3°C 38.2°F3.4°C 33% 3.5 mph SE5.6 kmh SE 3.5 mph5.6 kmh 30.34 in1027.4 mb - 0.00 in0.0 mm 0.00 in0.0 mm
01:40 PM 68.3°F20.2°C 38.8°F3.8°C 34% 1.2 mph S1.9 kmh S 3.5 mph5.6 kmh 30.34 in1027.4 mb - 0.00 in0.0 mm 0.00 in0.0 mm
01:35 PM 68.0°F20.0°C 38.6°F3.7°C 34% 1.2 mph E1.9 kmh E 2.3 mph3.7 kmh 30.34 in1027.4 mb - 0.00 in0.0 mm 0.00 in0.0 mm
01:30 PM 67.9°F19.9°C 38.4°F3.6°C 34% 3.5 mph S5.6 kmh S 3.5 mph5.6 kmh 30.34 in1027.4 mb - 0.00 in0.0 mm 0.00 in0.0 mm
01:25 PM 68.0°F20.0°C 37.8°F3.2°C 33% 1.2 mph SW1.9 kmh SW 3.5 mph5.6 kmh 30.34 in1027.4 mb - 0.00 in0.0 mm 0.00 in0.0 mm
01:20 PM 67.4°F19.7°C 37.3°F2.9°C 33% 1.2 mph SSW1.9 kmh SSW 2.3 mph3.7 kmh 30.34 in1027.4 mb - 0.00 in0.0 mm 0.00 in0.0 mm
01:15 PM 66.9°F19.4°C 38.3°F3.5°C 35% 1.2 mph WNW1.9 kmh WNW 2.3 mph3.7 kmh 30.34 in1027.4 mb - 0.00 in0.0 mm 0.00 in0.0 mm
01:10 PM 66.9°F19.4°C 37.6°F3.1°C 34% 1.2 mph N1.9 kmh N 3.5 mph5.6 kmh 30.35 in1027.8 mb - 0.00 in0.0 mm 0.00 in0.0 mm
01:00 PM 66.5°F19.2°C 36.5°F2.5°C 33% 1.2 mph NNE1.9 kmh NNE -- 30.36 in1028.1 mb - 0.00 in0.0 mm 0.00 in0.0 mm
12:55 PM 66.3°F19.1°C 37.1°F2.8°C 34% Calm Calm 2.3 mph3.7 kmh 30.36 in1028.1 mb - 0.00 in0.0 mm 0.00 in0.0 mm
12:50 PM 66.2°F19.0°C 36.3°F2.4°C 33% 1.2 mph NNE1.9 kmh NNE 3.5 mph5.6 kmh 30.36 in1028.1 mb - 0.00 in0.0 mm 0.00 in0.0 mm
12:45 PM 66.4°F19.1°C 36.4°F2.4°C 33% 1.2 mph NNE1.9 kmh NNE 1.2 mph1.9 kmh 30.36 in1028.1 mb - 0.00 in0.0 mm 0.00 in0.0 mm
12:40 PM 66.1°F18.9°C 37.6°F3.1°C 35% 1.2 mph NNW1.9 kmh NNW 3.5 mph5.6 kmh 30.36 in1028.1 mb - 0.00 in0.0 mm 0.00 in0.0 mm
12:35 PM 65.8°F18.8°C 36.6°F2.6°C 34% 1.2 mph NNE1.9 kmh NNE 2.3 mph3.7 kmh 30.37 in1028.4 mb - 0.00 in0.0 mm 0.00 in0.0 mm
12:30 PM 65.7°F18.7°C 37.3°F2.9°C 35% 1.2 mph N1.9 kmh N 3.5 mph5.6 kmh 30.37 in1028.4 mb - 0.00 in0.0 mm 0.00 in0.0 mm
12:25 PM 65.5°F18.6°C 37.1°F2.8°C 35% 2.3 mph NNE3.7 kmh NNE 2.3 mph3.7 kmh 30.37 in1028.4 mb - 0.00 in0.0 mm 0.00 in0.0 mm
12:20 PM 65.2°F18.4°C 36.1°F2.3°C 34% 3.5 mph N5.6 kmh N 3.5 mph5.6 kmh 30.38 in1028.8 mb - 0.00 in0.0 mm 0.00 in0.0 mm
12:15 PM 65.0°F18.3°C 36.7°F2.6°C 35% 3.5 mph NE5.6 kmh NE 3.5 mph5.6 kmh 30.38 in1028.8 mb - 0.00 in0.0 mm 0.00 in0.0 mm
12:10 PM 64.7°F18.2°C 36.4°F2.4°C 35% 3.5 mph NE5.6 kmh NE 3.5 mph5.6 kmh 30.38 in1028.8 mb - 0.00 in0.0 mm 0.00 in0.0 mm
12:00 PM 64.2°F17.9°C 36.7°F2.6°C 36% 3.5 mph NNE5.6 kmh NNE 3.5 mph5.6 kmh 30.38 in1028.8 mb - 0.00 in0.0 mm 0.00 in0.0 mm
11:55 AM 64.0°F17.8°C 37.2°F2.9°C 37% 4.6 mph NNE7.4 kmh NNE 6.9 mph11.1 kmh 30.38 in1028.8 mb - 0.00 in0.0 mm 0.00 in0.0 mm
11:50 AM 63.8°F17.7°C 37.0°F2.8°C 37% 4.6 mph NNE7.4 kmh NNE 9.2 mph14.8 kmh 30.39 in1029.1 mb - 0.00 in0.0 mm 0.00 in0.0 mm
11:45 AM 63.6°F17.6°C 36.8°F2.7°C 37% 5.8 mph N9.3 kmh N 8.1 mph13.0 kmh 30.39 in1029.1 mb - 0.00 in0.0 mm 0.00 in0.0 mm
11:40 AM 63.5°F17.5°C 36.7°F2.6°C 37% 5.8 mph NNE9.3 kmh NNE 11.5 mph18.5 kmh 30.39 in1029.1 mb - 0.00 in0.0 mm 0.00 in0.0 mm
11:35 AM 63.3°F17.4°C 36.6°F2.6°C 37% 4.6 mph N7.4 kmh N 5.8 mph9.3 kmh 30.40 in1029.5 mb - 0.00 in0.0 mm 0.00 in0.0 mm
11:30 AM 63.1°F17.3°C 37.0°F2.8°C 38% 5.8 mph N9.3 kmh N 8.1 mph13.0 kmh 30.40 in1029.5 mb - 0.00 in0.0 mm 0.00 in0.0 mm
11:25 AM 62.8°F17.1°C 36.8°F2.7°C 38% 5.8 mph N9.3 kmh N 5.8 mph9.3 kmh 30.40 in1029.5 mb - 0.00 in0.0 mm 0.00 in0.0 mm
11:20 AM 62.6°F17.0°C 36.6°F2.6°C 38% 6.9 mph NNE11.1 kmh NNE 10.4 mph16.7 kmh 30.40 in1029.5 mb - 0.00 in0.0 mm 0.00 in0.0 mm
11:15 AM 62.4°F16.9°C 37.1°F2.8°C 39% 5.8 mph N9.3 kmh N 6.9 mph11.1 kmh 30.40 in1029.5 mb - 0.00 in0.0 mm 0.00 in0.0 mm
11:10 AM 62.2°F16.8°C 36.3°F2.4°C 38% 5.8 mph N9.3 kmh N 8.1 mph13.0 kmh 30.40 in1029.5 mb - 0.00 in0.0 mm 0.00 in0.0 mm
11:00 AM 61.8°F16.6°C 37.2°F2.9°C 40% 6.9 mph N11.1 kmh N 10.4 mph16.7 kmh 30.40 in1029.5 mb - 0.00 in0.0 mm 0.00 in0.0 mm
10:55 AM 61.5°F16.4°C 36.3°F2.4°C 39% 5.8 mph NNE9.3 kmh NNE 11.5 mph18.5 kmh 30.40 in1029.5 mb - 0.00 in0.0 mm 0.00 in0.0 mm
10:50 AM 61.2°F16.2°C 36.7°F2.6°C 40% 6.9 mph N11.1 kmh N 11.5 mph18.5 kmh 30.41 in1029.8 mb - 0.00 in0.0 mm 0.00 in0.0 mm
10:45 AM 61.1°F16.2°C 36.6°F2.6°C 40% 8.1 mph NNE13.0 kmh NNE 10.4 mph16.7 kmh 30.41 in1029.8 mb - 0.00 in0.0 mm 0.00 in0.0 mm
10:40 AM 60.8°F16.0°C 37.5°F3.1°C 42% 5.8 mph N9.3 kmh N 11.5 mph18.5 kmh 30.41 in1029.8 mb - 0.00 in0.0 mm 0.00 in0.0 mm
10:35 AM 60.3°F15.7°C 37.1°F2.8°C 42% 5.8 mph NNE9.3 kmh NNE 9.2 mph14.8 kmh 30.41 in1029.8 mb - 0.00 in0.0 mm 0.00 in0.0 mm
10:30 AM 60.1°F15.6°C 36.3°F2.4°C 41% 8.1 mph NNE13.0 kmh NNE 13.8 mph22.2 kmh 30.41 in1029.8 mb - 0.00 in0.0 mm 0.00 in0.0 mm
10:25 AM 59.9°F15.5°C 37.4°F3.0°C 43% 5.8 mph NNE9.3 kmh NNE 9.2 mph14.8 kmh 30.41 in1029.8 mb - 0.00 in0.0 mm 0.00 in0.0 mm
10:20 AM 59.8°F15.4°C 37.2°F2.9°C 43% 5.8 mph N9.3 kmh N 6.9 mph11.1 kmh 30.41 in1029.8 mb - 0.00 in0.0 mm 0.00 in0.0 mm
10:15 AM 59.6°F15.3°C 36.5°F2.5°C 42% 6.9 mph NNE11.1 kmh NNE 11.5 mph18.5 kmh 30.41 in1029.8 mb - 0.00 in0.0 mm 0.00 in0.0 mm
10:10 AM 59.7°F15.4°C 37.1°F2.8°C 43% 5.8 mph N9.3 kmh N 11.5 mph18.5 kmh 30.41 in1029.8 mb - 0.00 in0.0 mm 0.00 in0.0 mm
10:00 AM 59.5°F15.3°C 37.6°F3.1°C 44% 4.6 mph N7.4 kmh N 6.9 mph11.1 kmh 30.41 in1029.8 mb - 0.00 in0.0 mm 0.00 in0.0 mm
09:55 AM 59.3°F15.2°C 36.2°F2.3°C 42% 5.8 mph N9.3 kmh N 6.9 mph11.1 kmh 30.41 in1029.8 mb - 0.00 in0.0 mm 0.00 in0.0 mm
09:50 AM 59.2°F15.1°C 36.7°F2.6°C 43% 4.6 mph N7.4 kmh N 9.2 mph14.8 kmh 30.41 in1029.8 mb - 0.00 in0.0 mm 0.00 in0.0 mm
09:45 AM 59.0°F15.0°C 37.7°F3.2°C 45% 3.5 mph N5.6 kmh N 8.1 mph13.0 kmh 30.41 in1029.8 mb - 0.00 in0.0 mm 0.00 in0.0 mm
09:40 AM 58.7°F14.8°C 37.4°F3.0°C 45% 3.5 mph NNE5.6 kmh NNE 5.8 mph9.3 kmh 30.41 in1029.8 mb - 0.00 in0.0 mm 0.00 in0.0 mm
09:35 AM 58.3°F14.6°C 37.0°F2.8°C 45% 4.6 mph N7.4 kmh N 6.9 mph11.1 kmh 30.41 in1029.8 mb - 0.00 in0.0 mm 0.00 in0.0 mm
09:30 AM 57.9°F14.4°C 37.3°F2.9°C 46% 3.5 mph N5.6 kmh N 3.5 mph5.6 kmh 30.41 in1029.8 mb - 0.00 in0.0 mm 0.00 in0.0 mm
09:25 AM 57.6°F14.2°C 37.5°F3.1°C 47% 3.5 mph N5.6 kmh N 3.5 mph5.6 kmh 30.41 in1029.8 mb - 0.00 in0.0 mm 0.00 in0.0 mm
09:20 AM 57.6°F14.2°C 38.0°F3.3°C 48% 3.5 mph N5.6 kmh N 10.4 mph16.7 kmh 30.41 in1029.8 mb - 0.00 in0.0 mm 0.00 in0.0 mm
09:15 AM 57.3°F14.1°C 38.3°F3.5°C 49% 2.3 mph N3.7 kmh N 3.5 mph5.6 kmh 30.41 in1029.8 mb - 0.00 in0.0 mm 0.00 in0.0 mm
09:10 AM 56.6°F13.7°C 38.2°F3.4°C 50% 2.3 mph NNE3.7 kmh NNE 5.8 mph9.3 kmh 30.41 in1029.8 mb - 0.00 in0.0 mm 0.00 in0.0 mm
09:00 AM 55.3°F12.9°C 37.5°F3.1°C 51% 8.1 mph NNE13.0 kmh NNE 11.5 mph18.5 kmh 30.41 in1029.8 mb - 0.00 in0.0 mm 0.00 in0.0 mm
08:55 AM 54.9°F12.7°C 37.6°F3.1°C 52% 6.9 mph NNE11.1 kmh NNE 11.5 mph18.5 kmh 30.40 in1029.5 mb - 0.00 in0.0 mm 0.00 in0.0 mm
08:50 AM 54.6°F12.6°C 37.3°F2.9°C 52% 5.8 mph N9.3 kmh N 9.2 mph14.8 kmh 30.39 in1029.1 mb - 0.00 in0.0 mm 0.00 in0.0 mm
08:45 AM 54.2°F12.3°C 37.4°F3.0°C 53% 8.1 mph NNE13.0 kmh NNE 10.4 mph16.7 kmh 30.39 in1029.1 mb - 0.00 in0.0 mm 0.00 in0.0 mm
08:40 AM 53.9°F12.2°C 37.1°F2.8°C 53% 8.1 mph N13.0 kmh N 11.5 mph18.5 kmh 30.39 in1029.1 mb - 0.00 in0.0 mm 0.00 in0.0 mm
08:35 AM 54.2°F12.3°C 36.5°F2.5°C 51% 9.2 mph NNE14.8 kmh NNE 12.7 mph20.4 kmh 30.39 in1029.1 mb - 0.00 in0.0 mm 0.00 in0.0 mm
08:30 AM 53.5°F11.9°C 36.8°F2.7°C 53% 9.2 mph N14.8 kmh N 13.8 mph22.2 kmh 30.39 in1029.1 mb - 0.00 in0.0 mm 0.00 in0.0 mm
08:25 AM 53.1°F11.7°C 36.9°F2.7°C 54% 10.4 mph N16.7 kmh N 13.8 mph22.2 kmh 30.39 in1029.1 mb - 0.00 in0.0 mm 0.00 in0.0 mm
08:20 AM 52.3°F11.3°C 37.5°F3.1°C 57% 8.1 mph NNE13.0 kmh NNE 13.8 mph22.2 kmh 30.39 in1029.1 mb - 0.00 in0.0 mm 0.00 in0.0 mm
08:15 AM 52.4°F11.3°C 38.0°F3.3°C 58% 6.9 mph N11.1 kmh N 11.5 mph18.5 kmh 30.39 in1029.1 mb - 0.00 in0.0 mm 0.00 in0.0 mm
08:10 AM 52.7°F11.5°C 37.9°F3.3°C 57% 8.1 mph NNE13.0 kmh NNE 13.8 mph22.2 kmh 30.39 in1029.1 mb - 0.00 in0.0 mm 0.00 in0.0 mm
08:00 AM 52.6°F11.4°C 37.8°F3.2°C 57% 8.1 mph NNE13.0 kmh NNE 16.1 mph25.9 kmh 30.38 in1028.8 mb - 0.00 in0.0 mm 0.00 in0.0 mm
07:55 AM 52.4°F11.3°C 37.6°F3.1°C 57% 9.2 mph N14.8 kmh N 12.7 mph20.4 kmh 30.38 in1028.8 mb - 0.00 in0.0 mm 0.00 in0.0 mm
07:50 AM 51.6°F10.9°C 38.2°F3.4°C 60% 8.1 mph N13.0 kmh N 13.8 mph22.2 kmh 30.38 in1028.8 mb - 0.00 in0.0 mm 0.00 in0.0 mm
07:45 AM 51.4°F10.8°C 38.4°F3.6°C 61% 8.1 mph N13.0 kmh N 11.5 mph18.5 kmh 30.38 in1028.8 mb - 0.00 in0.0 mm 0.00 in0.0 mm
07:40 AM 51.4°F10.8°C 38.4°F3.6°C 61% 6.9 mph 11.1 kmh 12.7 mph20.4 kmh 30.38 in1028.8 mb - 0.00 in0.0 mm 0.00 in0.0 mm
07:35 AM 51.7°F10.9°C 38.7°F3.7°C 61% 6.9 mph N11.1 kmh N 10.4 mph16.7 kmh 30.38 in1028.8 mb - 0.00 in0.0 mm 0.00 in0.0 mm
07:30 AM 52.3°F11.3°C 38.8°F3.8°C 60% 6.9 mph NNE11.1 kmh NNE 11.5 mph18.5 kmh 30.37 in1028.4 mb - 0.00 in0.0 mm 0.00 in0.0 mm
07:25 AM 52.7°F11.5°C 38.8°F3.8°C 59% 8.1 mph NNE13.0 kmh NNE 12.7 mph20.4 kmh 30.37 in1028.4 mb - 0.00 in0.0 mm 0.00 in0.0 mm
07:20 AM 52.8°F11.6°C 38.9°F3.8°C 59% 6.9 mph N11.1 kmh N 16.1 mph25.9 kmh 30.37 in1028.4 mb - 0.00 in0.0 mm 0.00 in0.0 mm
07:15 AM 53.2°F11.8°C 38.8°F3.8°C 58% 9.2 mph N14.8 kmh N 11.5 mph18.5 kmh 30.37 in1028.4 mb - 0.00 in0.0 mm 0.00 in0.0 mm
07:10 AM 53.6°F12.0°C 38.8°F3.8°C 57% 9.2 mph N14.8 kmh N 13.8 mph22.2 kmh 30.37 in1028.4 mb - 0.00 in0.0 mm 0.00 in0.0 mm
07:00 AM 53.6°F12.0°C 39.2°F4.0°C 58% 9.2 mph NE14.8 kmh NE 12.7 mph20.4 kmh 30.36 in1028.1 mb - 0.00 in0.0 mm 0.00 in0.0 mm
06:50 AM 53.2°F11.8°C 39.2°F4.0°C 59% 9.2 mph N14.8 kmh N 11.5 mph18.5 kmh 30.36 in1028.1 mb - 0.00 in0.0 mm 0.00 in0.0 mm
06:45 AM 53.0°F11.7°C 39.1°F3.9°C 59% 8.1 mph NNE13.0 kmh NNE 11.5 mph18.5 kmh 30.36 in1028.1 mb - 0.00 in0.0 mm 0.00 in0.0 mm
06:40 AM 53.5°F11.9°C 39.5°F4.2°C 59% 6.9 mph N11.1 kmh N 10.4 mph16.7 kmh 30.36 in1028.1 mb - 0.00 in0.0 mm 0.00 in0.0 mm
06:35 AM 53.7°F12.1°C 39.3°F4.1°C 58% 8.1 mph N13.0 kmh N 11.5 mph18.5 kmh 30.36 in1028.1 mb - 0.00 in0.0 mm 0.00 in0.0 mm
06:30 AM 53.9°F12.2°C 39.5°F4.2°C 58% 6.9 mph NW11.1 kmh NW 11.5 mph18.5 kmh 30.36 in1028.1 mb - 0.00 in0.0 mm 0.00 in0.0 mm
06:20 AM 53.7°F12.1°C 39.7°F4.3°C 59% 5.8 mph NNE9.3 kmh NNE 8.1 mph13.0 kmh 30.36 in1028.1 mb - 0.00 in0.0 mm 0.00 in0.0 mm
06:15 AM 53.3°F11.8°C 39.8°F4.3°C 60% 3.5 mph N5.6 kmh N 8.1 mph13.0 kmh 30.36 in1028.1 mb - 0.00 in0.0 mm 0.00 in0.0 mm
06:10 AM 53.0°F11.7°C 39.9°F4.4°C 61% 2.3 mph N3.7 kmh N 3.5 mph5.6 kmh 30.36 in1028.1 mb - 0.00 in0.0 mm 0.00 in0.0 mm
05:55 AM 52.3°F11.3°C 40.5°F4.7°C 64% 3.5 mph E5.6 kmh E 2.3 mph3.7 kmh 30.35 in1027.8 mb - 0.00 in0.0 mm 0.00 in0.0 mm
05:50 AM 52.3°F11.3°C 40.5°F4.7°C 64% 1.2 mph NNE1.9 kmh NNE 6.9 mph11.1 kmh 30.35 in1027.8 mb - 0.00 in0.0 mm 0.00 in0.0 mm
05:40 AM 49.1°F9.5°C 40.1°F4.5°C 71% 1.2 mph NNE1.9 kmh NNE 1.2 mph1.9 kmh 30.35 in1027.8 mb - 0.00 in0.0 mm 0.00 in0.0 mm
05:35 AM 49.1°F9.5°C 40.4°F4.7°C 72% Calm Calm 1.2 mph1.9 kmh 30.35 in1027.8 mb - 0.00 in0.0 mm 0.00 in0.0 mm
05:30 AM 49.7°F9.8°C 41.0°F5.0°C 72% 1.2 mph NNE1.9 kmh NNE -- 30.35 in1027.8 mb - 0.00 in0.0 mm 0.00 in0.0 mm
05:25 AM 49.7°F9.8°C 40.7°F4.8°C 71% 1.2 mph N1.9 kmh N 3.5 mph5.6 kmh 30.35 in1027.8 mb - 0.00 in0.0 mm 0.00 in0.0 mm
05:10 AM 49.6°F9.8°C 41.3°F5.2°C 73% Calm Calm -- 30.35 in1027.8 mb - 0.00 in0.0 mm 0.00 in0.0 mm
05:00 AM 49.6°F9.8°C 41.6°F5.3°C 74% Calm Calm -- 30.35 in1027.8 mb - 0.00 in0.0 mm 0.00 in0.0 mm
04:55 AM 49.4°F9.7°C 41.5°F5.3°C 74% 1.2 mph N1.9 kmh N 1.2 mph1.9 kmh 30.35 in1027.8 mb - 0.00 in0.0 mm 0.00 in0.0 mm
04:50 AM 49.6°F9.8°C 41.7°F5.4°C 74% 1.2 mph NNE1.9 kmh NNE 2.3 mph3.7 kmh 30.36 in1028.1 mb - 0.00 in0.0 mm 0.00 in0.0 mm
04:45 AM 49.9°F9.9°C 41.9°F5.5°C 74% 2.3 mph NNE3.7 kmh NNE 3.5 mph5.6 kmh 30.36 in1028.1 mb - 0.00 in0.0 mm 0.00 in0.0 mm
04:40 AM 49.7°F9.8°C 41.8°F5.4°C 74% 4.6 mph NNE7.4 kmh NNE 4.6 mph7.4 kmh 30.36 in1028.1 mb - 0.00 in0.0 mm 0.00 in0.0 mm
04:35 AM 49.8°F9.9°C 41.8°F5.4°C 74% 3.5 mph N5.6 kmh N 4.6 mph7.4 kmh 30.35 in1027.8 mb - 0.00 in0.0 mm 0.00 in0.0 mm
04:30 AM 49.3°F9.6°C 42.0°F5.6°C 76% 2.3 mph N3.7 kmh N 3.5 mph5.6 kmh 30.36 in1028.1 mb - 0.00 in0.0 mm 0.00 in0.0 mm
04:20 AM 48.9°F9.4°C 42.0°F5.6°C 77% 2.3 mph N3.7 kmh N 2.3 mph3.7 kmh 30.36 in1028.1 mb - 0.00 in0.0 mm 0.00 in0.0 mm
04:10 AM 49.0°F9.4°C 42.1°F5.6°C 77% 2.3 mph N3.7 kmh N 2.3 mph3.7 kmh 30.35 in1027.8 mb - 0.00 in0.0 mm 0.00 in0.0 mm
04:00 AM 49.4°F9.7°C 42.4°F5.8°C 77% 2.3 mph N3.7 kmh N 2.3 mph3.7 kmh 30.36 in1028.1 mb - 0.00 in0.0 mm 0.00 in0.0 mm
03:55 AM 49.6°F9.8°C 42.4°F5.8°C 76% 2.3 mph N3.7 kmh N 2.3 mph3.7 kmh 30.36 in1028.1 mb - 0.00 in0.0 mm 0.00 in0.0 mm
03:45 AM 49.6°F9.8°C 42.3°F5.7°C 76% 2.3 mph N3.7 kmh N 3.5 mph5.6 kmh 30.36 in1028.1 mb - 0.00 in0.0 mm 0.00 in0.0 mm
03:40 AM 49.6°F9.8°C 42.3°F5.7°C 76% 3.5 mph NNE5.6 kmh NNE 3.5 mph5.6 kmh 30.36 in1028.1 mb - 0.00 in0.0 mm 0.00 in0.0 mm
03:30 AM 49.3°F9.6°C 42.4°F5.8°C 77% 3.5 mph N5.6 kmh N 3.5 mph5.6 kmh 30.36 in1028.1 mb - 0.00 in0.0 mm 0.00 in0.0 mm
03:25 AM 49.3°F9.6°C 42.4°F5.8°C 77% 2.3 mph N3.7 kmh N 3.5 mph5.6 kmh 30.36 in1028.1 mb - 0.00 in0.0 mm 0.00 in0.0 mm
03:20 AM 49.4°F9.7°C 42.2°F5.7°C 76% 2.3 mph N3.7 kmh N 2.3 mph3.7 kmh 30.36 in1028.1 mb - 0.00 in0.0 mm 0.00 in0.0 mm
03:15 AM 50.0°F10.0°C 42.7°F5.9°C 76% 3.5 mph N5.6 kmh N 3.5 mph5.6 kmh 30.36 in1028.1 mb - 0.00 in0.0 mm 0.00 in0.0 mm
03:10 AM 50.0°F10.0°C 42.7°F5.9°C 76% 2.3 mph N3.7 kmh N 3.5 mph5.6 kmh 30.36 in1028.1 mb - 0.00 in0.0 mm 0.00 in0.0 mm
03:00 AM 50.1°F10.1°C 42.8°F6.0°C 76% 4.6 mph N7.4 kmh N 4.6 mph7.4 kmh 30.36 in1028.1 mb - 0.00 in0.0 mm 0.00 in0.0 mm
02:55 AM 50.1°F10.1°C 42.9°F6.1°C 76% 4.6 mph NNE7.4 kmh NNE 4.6 mph7.4 kmh 30.36 in1028.1 mb - 0.00 in0.0 mm 0.00 in0.0 mm
02:50 AM 49.9°F9.9°C 43.0°F6.1°C 77% 2.3 mph NNE3.7 kmh NNE 5.8 mph9.3 kmh 30.36 in1028.1 mb - 0.00 in0.0 mm 0.00 in0.0 mm
02:35 AM 49.8°F9.9°C 43.2°F6.2°C 78% 2.3 mph NE3.7 kmh NE 2.3 mph3.7 kmh 30.36 in1028.1 mb - 0.00 in0.0 mm 0.00 in0.0 mm
02:30 AM 49.9°F9.9°C 43.3°F6.3°C 78% 2.3 mph N3.7 kmh N 2.3 mph3.7 kmh 30.36 in1028.1 mb - 0.00 in0.0 mm 0.00 in0.0 mm
02:25 AM 49.8°F9.9°C 43.2°F6.2°C 78% 2.3 mph NNE3.7 kmh NNE 3.5 mph5.6 kmh 30.36 in1028.1 mb - 0.00 in0.0 mm 0.00 in0.0 mm
02:20 AM 49.6°F9.8°C 43.0°F6.1°C 78% 2.3 mph N3.7 kmh N 3.5 mph5.6 kmh 30.36 in1028.1 mb - 0.00 in0.0 mm 0.00 in0.0 mm
02:15 AM 49.7°F9.8°C 43.1°F6.2°C 78% 1.2 mph N1.9 kmh N 2.3 mph3.7 kmh 30.36 in1028.1 mb - 0.00 in0.0 mm 0.00 in0.0 mm
02:10 AM 50.0°F10.0°C 43.4°F6.3°C 78% 2.3 mph NNE3.7 kmh NNE 1.2 mph1.9 kmh 30.36 in1028.1 mb - 0.00 in0.0 mm 0.00 in0.0 mm
02:00 AM 49.7°F9.8°C 43.5°F6.4°C 79% 1.2 mph N1.9 kmh N 2.3 mph3.7 kmh 30.36 in1028.1 mb - 0.00 in0.0 mm 0.00 in0.0 mm
01:55 AM 49.9°F9.9°C 43.6°F6.4°C 79% 2.3 mph N3.7 kmh N 1.2 mph1.9 kmh 30.36 in1028.1 mb - 0.00 in0.0 mm 0.00 in0.0 mm
01:50 AM 49.5°F9.7°C 43.6°F6.4°C 80% 2.3 mph NNE3.7 kmh NNE 3.5 mph5.6 kmh 30.36 in1028.1 mb - 0.00 in0.0 mm 0.00 in0.0 mm
01:45 AM 48.8°F9.3°C 43.2°F6.2°C 81% 1.2 mph N1.9 kmh N 2.3 mph3.7 kmh 30.36 in1028.1 mb - 0.00 in0.0 mm 0.00 in0.0 mm
01:40 AM 49.0°F9.4°C 43.4°F6.3°C 81% Calm Calm -- 30.36 in1028.1 mb - 0.00 in0.0 mm 0.00 in0.0 mm
01:35 AM 49.2°F9.6°C 43.7°F6.5°C 81% Calm Calm 1.2 mph1.9 kmh 30.36 in1028.1 mb - 0.00 in0.0 mm 0.00 in0.0 mm
01:30 AM 49.2°F9.6°C 43.6°F6.4°C 81% Calm Calm 1.2 mph1.9 kmh 30.36 in1028.1 mb - 0.00 in0.0 mm 0.00 in0.0 mm
01:25 AM 49.1°F9.5°C 43.6°F6.4°C 81% Calm Calm 1.2 mph1.9 kmh 30.36 in1028.1 mb - 0.00 in0.0 mm 0.00 in0.0 mm
01:20 AM 49.2°F9.6°C 43.6°F6.4°C 81% Calm Calm -- 30.36 in1028.1 mb - 0.00 in0.0 mm 0.00 in0.0 mm
01:15 AM 49.4°F9.7°C 43.5°F6.4°C 80% Calm Calm 1.2 mph1.9 kmh 30.36 in1028.1 mb - 0.00 in0.0 mm 0.00 in0.0 mm
01:10 AM 49.7°F9.8°C 43.8°F6.6°C 80% Calm Calm -- 30.36 in1028.1 mb - 0.00 in0.0 mm 0.00 in0.0 mm
01:00 AM 50.3°F10.2°C 44.1°F6.7°C 79% Calm Calm 1.2 mph1.9 kmh 30.36 in1028.1 mb - 0.00 in0.0 mm 0.00 in0.0 mm
12:50 AM 50.9°F10.5°C 44.3°F6.8°C 78% 1.2 mph NNE1.9 kmh NNE 1.2 mph1.9 kmh 30.37 in1028.4 mb - 0.00 in0.0 mm 0.00 in0.0 mm
12:45 AM 50.9°F10.5°C 44.3°F6.8°C 78% 1.2 mph NNE1.9 kmh NNE 1.2 mph1.9 kmh 30.37 in1028.4 mb - 0.00 in0.0 mm 0.00 in0.0 mm
12:40 AM 50.7°F10.4°C 44.4°F6.9°C 79% 2.3 mph N3.7 kmh N 3.5 mph5.6 kmh 30.37 in1028.4 mb - 0.00 in0.0 mm 0.00 in0.0 mm
12:30 AM 49.7°F9.8°C 44.1°F6.7°C 81% 2.3 mph N3.7 kmh N 2.3 mph3.7 kmh 30.37 in1028.4 mb - 0.00 in0.0 mm 0.00 in0.0 mm
12:20 AM 50.0°F10.0°C 44.1°F6.7°C 80% 2.3 mph NNE3.7 kmh NNE 3.5 mph5.6 kmh 30.37 in1028.4 mb - 0.00 in0.0 mm 0.00 in0.0 mm
12:15 AM 50.2°F10.1°C 44.2°F6.8°C 80% 3.5 mph NNE5.6 kmh NNE 3.5 mph5.6 kmh 30.37 in1028.4 mb - 0.00 in0.0 mm 0.00 in0.0 mm
12:10 AM 50.4°F10.2°C 44.2°F6.8°C 79% 2.3 mph N3.7 kmh N 3.5 mph5.6 kmh 30.37 in1028.4 mb - 0.00 in0.0 mm 0.00 in0.0 mm
12:00 AM 50.9°F10.5°C 44.6°F7.0°C 79% 2.3 mph NE3.7 kmh NE 2.3 mph3.7 kmh 30.37 in1028.4 mb - 0.00 in0.0 mm 0.00 in0.0 mm